sensor_id;sensor_type;location;lat;lon;timestamp;P1;durP1;ratioP1;P2;durP2;ratioP2
8048;SDS011;20935;42.660;23.342;2022-10-23T00:00:45;27.87;;;23.23;;
8048;SDS011;20935;42.660;23.342;2022-10-23T00:03:10;30.37;;;23.57;;
8048;SDS011;20935;42.660;23.342;2022-10-23T00:05:37;31.17;;;23.73;;
8048;SDS011;20935;42.660;23.342;2022-10-23T00:08:03;28.33;;;23.43;;
8048;SDS011;20935;42.660;23.342;2022-10-23T00:10:28;26.87;;;22.77;;
8048;SDS011;20935;42.660;23.342;2022-10-23T00:12:54;27.63;;;23.03;;
8048;SDS011;20935;42.660;23.342;2022-10-23T00:15:20;32.10;;;22.70;;
8048;SDS011;20935;42.660;23.342;2022-10-23T00:17:46;30.20;;;23.53;;
8048;SDS011;20935;42.660;23.342;2022-10-23T00:20:12;30.80;;;23.97;;
8048;SDS011;20935;42.660;23.342;2022-10-23T00:22:37;32.47;;;22.30;;
8048;SDS011;20935;42.660;23.342;2022-10-23T00:25:04;27.73;;;21.33;;
8048;SDS011;20935;42.660;23.342;2022-10-23T00:27:29;28.57;;;21.53;;
8048;SDS011;20935;42.660;23.342;2022-10-23T00:29:54;28.50;;;21.23;;
8048;SDS011;20935;42.660;23.342;2022-10-23T00:32:20;26.33;;;21.30;;
8048;SDS011;20935;42.660;23.342;2022-10-23T00:34:45;27.07;;;20.20;;
8048;SDS011;20935;42.660;23.342;2022-10-23T00:37:10;26.47;;;21.60;;
8048;SDS011;20935;42.660;23.342;2022-10-23T00:39:36;28.50;;;21.53;;
8048;SDS011;20935;42.660;23.342;2022-10-23T00:42:01;25.80;;;21.30;;
8048;SDS011;20935;42.660;23.342;2022-10-23T00:46:55;26.77;;;21.43;;
8048;SDS011;20935;42.660;23.342;2022-10-23T00:49:20;27.30;;;23.10;;
8048;SDS011;20935;42.660;23.342;2022-10-23T00:51:47;31.47;;;22.90;;
8048;SDS011;20935;42.660;23.342;2022-10-23T00:54:14;29.00;;;23.80;;
8048;SDS011;20935;42.660;23.342;2022-10-23T00:56:41;27.80;;;22.67;;
8048;SDS011;20935;42.660;23.342;2022-10-23T00:59:07;28.70;;;22.13;;
8048;SDS011;20935;42.660;23.342;2022-10-23T01:01:33;30.77;;;22.03;;
8048;SDS011;20935;42.660;23.342;2022-10-23T01:03:58;26.90;;;21.17;;
8048;SDS011;20935;42.660;23.342;2022-10-23T01:06:30;28.90;;;22.87;;
8048;SDS011;20935;42.660;23.342;2022-10-23T01:11:42;24.30;;;20.80;;
8048;SDS011;20935;42.660;23.342;2022-10-23T01:16:51;34.63;;;25.90;;
8048;SDS011;20935;42.660;23.342;2022-10-23T01:22:09;36.23;;;28.07;;
8048;SDS011;20935;42.660;23.342;2022-10-23T01:27:21;39.13;;;30.43;;
8048;SDS011;20935;42.660;23.342;2022-10-23T01:30:04;45.60;;;30.70;;
8048;SDS011;20935;42.660;23.342;2022-10-23T01:32:39;41.57;;;31.97;;
8048;SDS011;20935;42.660;23.342;2022-10-23T01:35:09;36.10;;;28.93;;
8048;SDS011;20935;42.660;23.342;2022-10-23T01:37:38;38.37;;;30.50;;
8048;SDS011;20935;42.660;23.342;2022-10-23T01:40:04;39.30;;;29.27;;
8048;SDS011;20935;42.660;23.342;2022-10-23T01:42:34;43.43;;;30.30;;
8048;SDS011;20935;42.660;23.342;2022-10-23T01:45:02;39.37;;;28.67;;
8048;SDS011;20935;42.660;23.342;2022-10-23T01:47:29;38.83;;;29.57;;
8048;SDS011;20935;42.660;23.342;2022-10-23T01:49:55;39.20;;;28.20;;
8048;SDS011;20935;42.660;23.342;2022-10-23T01:52:22;36.87;;;27.93;;
8048;SDS011;20935;42.660;23.342;2022-10-23T01:54:47;36.73;;;27.90;;
8048;SDS011;20935;42.660;23.342;2022-10-23T01:57:14;37.37;;;26.83;;
8048;SDS011;20935;42.660;23.342;2022-10-23T01:59:43;40.13;;;25.60;;
8048;SDS011;20935;42.660;23.342;2022-10-23T02:02:09;38.90;;;25.10;;
8048;SDS011;20935;42.660;23.342;2022-10-23T02:04:37;30.30;;;24.37;;
8048;SDS011;20935;42.660;23.342;2022-10-23T02:07:03;36.83;;;24.23;;
8048;SDS011;20935;42.660;23.342;2022-10-23T02:09:29;32.43;;;23.40;;
8048;SDS011;20935;42.660;23.342;2022-10-23T02:11:58;29.33;;;22.87;;
8048;SDS011;20935;42.660;23.342;2022-10-23T02:15:12;31.23;;;23.90;;
8048;SDS011;20935;42.660;23.342;2022-10-23T02:17:18;27.13;;;22.57;;
8048;SDS011;20935;42.660;23.342;2022-10-23T02:19:46;27.73;;;22.57;;
8048;SDS011;20935;42.660;23.342;2022-10-23T02:22:22;31.60;;;22.33;;
8048;SDS011;20935;42.660;23.342;2022-10-23T02:24:56;27.50;;;22.93;;
8048;SDS011;20935;42.660;23.342;2022-10-23T02:27:31;31.67;;;24.90;;
8048;SDS011;20935;42.660;23.342;2022-10-23T02:30:09;42.73;;;23.73;;
8048;SDS011;20935;42.660;23.342;2022-10-23T02:32:35;30.17;;;23.00;;
8048;SDS011;20935;42.660;23.342;2022-10-23T02:35:01;30.33;;;21.60;;
8048;SDS011;20935;42.660;23.342;2022-10-23T02:37:26;25.77;;;20.77;;
8048;SDS011;20935;42.660;23.342;2022-10-23T02:39:52;24.93;;;20.20;;
8048;SDS011;20935;42.660;23.342;2022-10-23T02:42:23;24.70;;;21.07;;
8048;SDS011;20935;42.660;23.342;2022-10-23T02:47:42;27.37;;;20.93;;
8048;SDS011;20935;42.660;23.342;2022-10-23T02:57:48;25.33;;;19.97;;
8048;SDS011;20935;42.660;23.342;2022-10-23T03:00:16;26.00;;;20.67;;
8048;SDS011;20935;42.660;23.342;2022-10-23T03:02:55;28.10;;;21.30;;
8048;SDS011;20935;42.660;23.342;2022-10-23T03:05:22;27.97;;;22.50;;
8048;SDS011;20935;42.660;23.342;2022-10-23T03:07:49;26.43;;;21.00;;
8048;SDS011;20935;42.660;23.342;2022-10-23T03:10:15;28.63;;;22.30;;
8048;SDS011;20935;42.660;23.342;2022-10-23T03:12:41;30.13;;;22.13;;
8048;SDS011;20935;42.660;23.342;2022-10-23T03:15:06;29.60;;;21.70;;
8048;SDS011;20935;42.660;23.342;2022-10-23T03:17:32;28.97;;;21.73;;
8048;SDS011;20935;42.660;23.342;2022-10-23T03:19:57;29.10;;;21.40;;
8048;SDS011;20935;42.660;23.342;2022-10-23T03:22:22;31.10;;;22.57;;
8048;SDS011;20935;42.660;23.342;2022-10-23T03:24:48;27.07;;;21.27;;
8048;SDS011;20935;42.660;23.342;2022-10-23T03:27:13;27.27;;;22.23;;
8048;SDS011;20935;42.660;23.342;2022-10-23T03:29:38;30.40;;;22.23;;
8048;SDS011;20935;42.660;23.342;2022-10-23T03:32:04;26.40;;;21.07;;
8048;SDS011;20935;42.660;23.342;2022-10-23T03:34:29;26.53;;;21.83;;
8048;SDS011;20935;42.660;23.342;2022-10-23T03:36:54;27.50;;;22.20;;
8048;SDS011;20935;42.660;23.342;2022-10-23T03:39:23;30.10;;;21.53;;
8048;SDS011;20935;42.660;23.342;2022-10-23T03:41:48;26.83;;;21.40;;
8048;SDS011;20935;42.660;23.342;2022-10-23T03:44:13;27.00;;;21.53;;
8048;SDS011;20935;42.660;23.342;2022-10-23T03:46:39;25.63;;;20.30;;
8048;SDS011;20935;42.660;23.342;2022-10-23T03:49:04;27.90;;;21.47;;
8048;SDS011;20935;42.660;23.342;2022-10-23T03:51:30;25.87;;;20.30;;
8048;SDS011;20935;42.660;23.342;2022-10-23T03:53:55;26.97;;;20.67;;
8048;SDS011;20935;42.660;23.342;2022-10-23T03:56:21;24.00;;;20.27;;
8048;SDS011;20935;42.660;23.342;2022-10-23T03:58:46;27.53;;;19.60;;
8048;SDS011;20935;42.660;23.342;2022-10-23T04:01:12;23.07;;;18.00;;
8048;SDS011;20935;42.660;23.342;2022-10-23T04:03:37;22.63;;;17.60;;
8048;SDS011;20935;42.660;23.342;2022-10-23T04:06:03;23.27;;;18.07;;
8048;SDS011;20935;42.660;23.342;2022-10-23T04:08:28;20.80;;;15.60;;
8048;SDS011;20935;42.660;23.342;2022-10-23T04:10:54;24.63;;;17.30;;
8048;SDS011;20935;42.660;23.342;2022-10-23T04:13:19;19.83;;;15.63;;
8048;SDS011;20935;42.660;23.342;2022-10-23T04:15:48;15.83;;;13.03;;
8048;SDS011;20935;42.660;23.342;2022-10-23T04:18:14;16.63;;;12.10;;
8048;SDS011;20935;42.660;23.342;2022-10-23T04:20:39;14.30;;;10.60;;
8048;SDS011;20935;42.660;23.342;2022-10-23T04:23:04;14.13;;;10.27;;
8048;SDS011;20935;42.660;23.342;2022-10-23T04:25:29;17.87;;;11.13;;
8048;SDS011;20935;42.660;23.342;2022-10-23T04:27:55;18.23;;;10.97;;
8048;SDS011;20935;42.660;23.342;2022-10-23T04:30:20;15.23;;;10.40;;
8048;SDS011;20935;42.660;23.342;2022-10-23T04:32:48;14.47;;;10.67;;
8048;SDS011;20935;42.660;23.342;2022-10-23T04:35:14;12.20;;;8.77;;
8048;SDS011;20935;42.660;23.342;2022-10-23T04:37:39;14.60;;;9.17;;
8048;SDS011;20935;42.660;23.342;2022-10-23T04:40:04;13.23;;;7.67;;
8048;SDS011;20935;42.660;23.342;2022-10-23T04:42:30;12.77;;;9.17;;
8048;SDS011;20935;42.660;23.342;2022-10-23T04:44:55;12.90;;;8.87;;
8048;SDS011;20935;42.660;23.342;2022-10-23T04:47:20;13.87;;;9.63;;
8048;SDS011;20935;42.660;23.342;2022-10-23T04:49:45;14.10;;;8.83;;
8048;SDS011;20935;42.660;23.342;2022-10-23T04:52:11;12.23;;;8.13;;
8048;SDS011;20935;42.660;23.342;2022-10-23T04:54:36;12.47;;;8.30;;
8048;SDS011;20935;42.660;23.342;2022-10-23T04:57:01;16.23;;;9.37;;
8048;SDS011;20935;42.660;23.342;2022-10-23T04:59:27;11.77;;;8.90;;
8048;SDS011;20935;42.660;23.342;2022-10-23T05:01:52;14.97;;;9.13;;
8048;SDS011;20935;42.660;23.342;2022-10-23T05:04:18;14.03;;;10.07;;
8048;SDS011;20935;42.660;23.342;2022-10-23T05:06:43;17.83;;;10.43;;
8048;SDS011;20935;42.660;23.342;2022-10-23T05:09:08;11.37;;;10.23;;
8048;SDS011;20935;42.660;23.342;2022-10-23T05:11:33;15.73;;;10.70;;
8048;SDS011;20935;42.660;23.342;2022-10-23T05:13:59;12.37;;;10.97;;
8048;SDS011;20935;42.660;23.342;2022-10-23T05:19:08;15.77;;;8.90;;
8048;SDS011;20935;42.660;23.342;2022-10-23T05:21:35;13.47;;;7.50;;
8048;SDS011;20935;42.660;23.342;2022-10-23T05:24:02;14.77;;;8.10;;
8048;SDS011;20935;42.660;23.342;2022-10-23T05:26:28;16.20;;;8.70;;
8048;SDS011;20935;42.660;23.342;2022-10-23T05:28:54;14.23;;;7.73;;
8048;SDS011;20935;42.660;23.342;2022-10-23T05:31:19;14.93;;;8.13;;
8048;SDS011;20935;42.660;23.342;2022-10-23T05:33:46;10.87;;;6.93;;
8048;SDS011;20935;42.660;23.342;2022-10-23T05:36:11;10.13;;;7.13;;
8048;SDS011;20935;42.660;23.342;2022-10-23T05:38:37;11.37;;;6.73;;
8048;SDS011;20935;42.660;23.342;2022-10-23T05:41:03;14.20;;;7.27;;
8048;SDS011;20935;42.660;23.342;2022-10-23T05:43:28;11.00;;;8.30;;
8048;SDS011;20935;42.660;23.342;2022-10-23T05:45:55;8.17;;;6.63;;
8048;SDS011;20935;42.660;23.342;2022-10-23T05:48:20;9.23;;;7.13;;
8048;SDS011;20935;42.660;23.342;2022-10-23T05:50:46;9.13;;;6.10;;
8048;SDS011;20935;42.660;23.342;2022-10-23T05:53:11;9.90;;;6.73;;
8048;SDS011;20935;42.660;23.342;2022-10-23T05:55:36;8.17;;;6.40;;
8048;SDS011;20935;42.660;23.342;2022-10-23T05:58:02;10.33;;;6.93;;
8048;SDS011;20935;42.660;23.342;2022-10-23T06:00:27;9.60;;;6.70;;
8048;SDS011;20935;42.660;23.342;2022-10-23T06:02:53;10.10;;;6.50;;
8048;SDS011;20935;42.660;23.342;2022-10-23T06:05:18;10.23;;;7.07;;
8048;SDS011;20935;42.660;23.342;2022-10-23T06:07:43;12.67;;;7.23;;
8048;SDS011;20935;42.660;23.342;2022-10-23T06:10:09;11.63;;;6.97;;
8048;SDS011;20935;42.660;23.342;2022-10-23T06:12:34;10.80;;;6.73;;
8048;SDS011;20935;42.660;23.342;2022-10-23T06:14:59;11.70;;;7.03;;
8048;SDS011;20935;42.660;23.342;2022-10-23T06:17:26;12.30;;;6.90;;
8048;SDS011;20935;42.660;23.342;2022-10-23T06:19:51;12.87;;;7.20;;
8048;SDS011;20935;42.660;23.342;2022-10-23T06:22:16;12.23;;;7.23;;
8048;SDS011;20935;42.660;23.342;2022-10-23T06:24:42;9.20;;;6.87;;
8048;SDS011;20935;42.660;23.342;2022-10-23T06:27:07;10.40;;;6.77;;
8048;SDS011;20935;42.660;23.342;2022-10-23T06:29:32;7.37;;;6.37;;
8048;SDS011;20935;42.660;23.342;2022-10-23T06:31:58;10.17;;;6.43;;
8048;SDS011;20935;42.660;23.342;2022-10-23T06:34:23;10.57;;;6.90;;
8048;SDS011;20935;42.660;23.342;2022-10-23T06:36:48;11.20;;;6.47;;
8048;SDS011;20935;42.660;23.342;2022-10-23T06:39:13;10.50;;;6.07;;
8048;SDS011;20935;42.660;23.342;2022-10-23T06:41:39;9.17;;;6.63;;
8048;SDS011;20935;42.660;23.342;2022-10-23T06:44:06;8.93;;;6.03;;
8048;SDS011;20935;42.660;23.342;2022-10-23T06:46:31;11.50;;;6.70;;
8048;SDS011;20935;42.660;23.342;2022-10-23T06:48:58;9.73;;;6.10;;
8048;SDS011;20935;42.660;23.342;2022-10-23T06:51:24;7.10;;;5.87;;
8048;SDS011;20935;42.660;23.342;2022-10-23T06:53:53;7.17;;;6.07;;
8048;SDS011;20935;42.660;23.342;2022-10-23T06:56:19;9.60;;;6.10;;
8048;SDS011;20935;42.660;23.342;2022-10-23T06:58:44;6.47;;;5.87;;
8048;SDS011;20935;42.660;23.342;2022-10-23T07:01:10;11.00;;;6.17;;
8048;SDS011;20935;42.660;23.342;2022-10-23T07:03:36;12.07;;;6.70;;
8048;SDS011;20935;42.660;23.342;2022-10-23T07:06:05;10.67;;;6.70;;
8048;SDS011;20935;42.660;23.342;2022-10-23T07:08:30;7.47;;;5.73;;
8048;SDS011;20935;42.660;23.342;2022-10-23T07:10:56;7.87;;;6.03;;
8048;SDS011;20935;42.660;23.342;2022-10-23T07:13:21;7.80;;;6.10;;
8048;SDS011;20935;42.660;23.342;2022-10-23T07:15:48;10.60;;;6.30;;
8048;SDS011;20935;42.660;23.342;2022-10-23T07:18:14;11.53;;;6.07;;
8048;SDS011;20935;42.660;23.342;2022-10-23T07:20:41;11.97;;;6.23;;
8048;SDS011;20935;42.660;23.342;2022-10-23T07:23:06;9.00;;;6.37;;
8048;SDS011;20935;42.660;23.342;2022-10-23T07:25:31;9.87;;;6.37;;
8048;SDS011;20935;42.660;23.342;2022-10-23T07:27:57;7.73;;;6.20;;
8048;SDS011;20935;42.660;23.342;2022-10-23T07:30:23;10.77;;;7.57;;
8048;SDS011;20935;42.660;23.342;2022-10-23T07:32:48;9.20;;;6.33;;
8048;SDS011;20935;42.660;23.342;2022-10-23T07:35:14;5.57;;;4.93;;
8048;SDS011;20935;42.660;23.342;2022-10-23T07:37:39;7.27;;;5.60;;
8048;SDS011;20935;42.660;23.342;2022-10-23T07:40:05;8.37;;;6.07;;
8048;SDS011;20935;42.660;23.342;2022-10-23T07:42:30;7.40;;;5.50;;
8048;SDS011;20935;42.660;23.342;2022-10-23T07:44:55;9.33;;;5.97;;
8048;SDS011;20935;42.660;23.342;2022-10-23T07:47:21;10.13;;;6.43;;
8048;SDS011;20935;42.660;23.342;2022-10-23T07:49:46;7.60;;;5.57;;
8048;SDS011;20935;42.660;23.342;2022-10-23T07:52:12;8.83;;;6.30;;
8048;SDS011;20935;42.660;23.342;2022-10-23T07:54:37;9.03;;;5.60;;
8048;SDS011;20935;42.660;23.342;2022-10-23T07:57:02;7.87;;;5.50;;
8048;SDS011;20935;42.660;23.342;2022-10-23T07:59:27;7.80;;;6.50;;
8048;SDS011;20935;42.660;23.342;2022-10-23T08:01:53;9.17;;;5.67;;
8048;SDS011;20935;42.660;23.342;2022-10-23T08:04:21;8.53;;;6.27;;
8048;SDS011;20935;42.660;23.342;2022-10-23T08:06:46;11.93;;;6.27;;
8048;SDS011;20935;42.660;23.342;2022-10-23T08:09:12;8.20;;;5.57;;
8048;SDS011;20935;42.660;23.342;2022-10-23T08:11:37;9.53;;;5.33;;
8048;SDS011;20935;42.660;23.342;2022-10-23T08:14:03;7.90;;;5.70;;
8048;SDS011;20935;42.660;23.342;2022-10-23T08:16:29;10.10;;;6.00;;
8048;SDS011;20935;42.660;23.342;2022-10-23T08:18:54;7.83;;;5.27;;
8048;SDS011;20935;42.660;23.342;2022-10-23T08:21:19;8.80;;;5.23;;
8048;SDS011;20935;42.660;23.342;2022-10-23T08:23:45;10.13;;;4.97;;
8048;SDS011;20935;42.660;23.342;2022-10-23T08:26:10;7.87;;;5.07;;
8048;SDS011;20935;42.660;23.342;2022-10-23T08:28:35;11.23;;;5.20;;
8048;SDS011;20935;42.660;23.342;2022-10-23T08:31:11;9.47;;;5.17;;
8048;SDS011;20935;42.660;23.342;2022-10-23T08:33:37;9.03;;;4.93;;
8048;SDS011;20935;42.660;23.342;2022-10-23T08:36:02;8.63;;;5.27;;
8048;SDS011;20935;42.660;23.342;2022-10-23T08:38:28;8.03;;;5.40;;
8048;SDS011;20935;42.660;23.342;2022-10-23T08:40:53;9.93;;;5.47;;
8048;SDS011;20935;42.660;23.342;2022-10-23T08:45:57;6.93;;;4.60;;
8048;SDS011;20935;42.660;23.342;2022-10-23T08:48:29;5.37;;;4.40;;
8048;SDS011;20935;42.660;23.342;2022-10-23T08:50:56;7.80;;;4.80;;
8048;SDS011;20935;42.660;23.342;2022-10-23T08:53:25;6.63;;;4.57;;
8048;SDS011;20935;42.660;23.342;2022-10-23T08:55:54;5.83;;;4.73;;
8048;SDS011;20935;42.660;23.342;2022-10-23T08:58:35;4.93;;;4.40;;
8048;SDS011;20935;42.660;23.342;2022-10-23T09:01:18;6.73;;;4.67;;
8048;SDS011;20935;42.660;23.342;2022-10-23T09:03:45;6.40;;;4.47;;
8048;SDS011;20935;42.660;23.342;2022-10-23T09:14:18;6.10;;;4.10;;
8048;SDS011;20935;42.660;23.342;2022-10-23T09:19:20;4.70;;;4.10;;
8048;SDS011;20935;42.660;23.342;2022-10-23T09:21:48;5.83;;;4.53;;
8048;SDS011;20935;42.660;23.342;2022-10-23T09:24:14;9.00;;;4.67;;
8048;SDS011;20935;42.660;23.342;2022-10-23T09:26:42;5.70;;;4.30;;
8048;SDS011;20935;42.660;23.342;2022-10-23T09:31:50;4.33;;;3.60;;
8048;SDS011;20935;42.660;23.342;2022-10-23T09:34:23;9.03;;;4.20;;
8048;SDS011;20935;42.660;23.342;2022-10-23T09:36:50;4.40;;;4.00;;
8048;SDS011;20935;42.660;23.342;2022-10-23T09:39:24;9.40;;;4.27;;
8048;SDS011;20935;42.660;23.342;2022-10-23T09:41:49;7.20;;;3.63;;
8048;SDS011;20935;42.660;23.342;2022-10-23T09:46:41;5.80;;;4.30;;
8048;SDS011;20935;42.660;23.342;2022-10-23T09:52:04;7.33;;;3.63;;
8048;SDS011;20935;42.660;23.342;2022-10-23T09:54:35;3.80;;;3.13;;
8048;SDS011;20935;42.660;23.342;2022-10-23T09:57:03;4.23;;;2.80;;
8048;SDS011;20935;42.660;23.342;2022-10-23T09:59:30;5.57;;;3.10;;
8048;SDS011;20935;42.660;23.342;2022-10-23T10:01:56;2.97;;;2.57;;
8048;SDS011;20935;42.660;23.342;2022-10-23T10:04:32;3.33;;;3.03;;
8048;SDS011;20935;42.660;23.342;2022-10-23T10:06:57;5.10;;;2.83;;
8048;SDS011;20935;42.660;23.342;2022-10-23T10:09:23;4.40;;;3.40;;
8048;SDS011;20935;42.660;23.342;2022-10-23T10:11:53;3.80;;;2.83;;
8048;SDS011;20935;42.660;23.342;2022-10-23T10:17:00;2.83;;;2.23;;
8048;SDS011;20935;42.660;23.342;2022-10-23T10:35:10;3.63;;;2.77;;
8048;SDS011;20935;42.660;23.342;2022-10-23T10:40:15;3.77;;;2.57;;
8048;SDS011;20935;42.660;23.342;2022-10-23T10:45:17;3.40;;;2.77;;
8048;SDS011;20935;42.660;23.342;2022-10-23T10:47:47;2.70;;;2.40;;
8048;SDS011;20935;42.660;23.342;2022-10-23T10:55:31;3.37;;;2.37;;
8048;SDS011;20935;42.660;23.342;2022-10-23T11:00:35;3.17;;;2.40;;
8048;SDS011;20935;42.660;23.342;2022-10-23T11:03:09;4.73;;;2.30;;
8048;SDS011;20935;42.660;23.342;2022-10-23T11:05:37;4.07;;;2.70;;
8048;SDS011;20935;42.660;23.342;2022-10-23T11:10:37;3.33;;;3.03;;
8048;SDS011;20935;42.660;23.342;2022-10-23T11:13:04;5.83;;;3.13;;
8048;SDS011;20935;42.660;23.342;2022-10-23T11:15:34;3.57;;;2.40;;
8048;SDS011;20935;42.660;23.342;2022-10-23T11:18:02;4.80;;;2.70;;
8048;SDS011;20935;42.660;23.342;2022-10-23T11:30:39;2.93;;;2.40;;
8048;SDS011;20935;42.660;23.342;2022-10-23T11:38:27;3.67;;;2.80;;
8048;SDS011;20935;42.660;23.342;2022-10-23T11:40:53;3.83;;;2.80;;
8048;SDS011;20935;42.660;23.342;2022-10-23T11:45:55;3.67;;;2.70;;
8048;SDS011;20935;42.660;23.342;2022-10-23T11:48:39;3.97;;;3.13;;
8048;SDS011;20935;42.660;23.342;2022-10-23T11:51:05;3.43;;;3.10;;
8048;SDS011;20935;42.660;23.342;2022-10-23T11:53:49;5.10;;;2.70;;
8048;SDS011;20935;42.660;23.342;2022-10-23T11:58:41;3.10;;;2.70;;
8048;SDS011;20935;42.660;23.342;2022-10-23T12:06:39;5.07;;;2.93;;
8048;SDS011;20935;42.660;23.342;2022-10-23T12:09:17;4.30;;;2.60;;
8048;SDS011;20935;42.660;23.342;2022-10-23T12:11:48;4.77;;;2.90;;
8048;SDS011;20935;42.660;23.342;2022-10-23T12:14:28;2.50;;;2.30;;
8048;SDS011;20935;42.660;23.342;2022-10-23T12:16:54;6.17;;;2.90;;
8048;SDS011;20935;42.660;23.342;2022-10-23T12:19:21;3.57;;;3.27;;
8048;SDS011;20935;42.660;23.342;2022-10-23T12:21:46;3.07;;;2.70;;
8048;SDS011;20935;42.660;23.342;2022-10-23T12:27:03;3.43;;;2.80;;
8048;SDS011;20935;42.660;23.342;2022-10-23T12:32:11;4.97;;;2.37;;
8048;SDS011;20935;42.660;23.342;2022-10-23T12:39:55;3.80;;;2.57;;
8048;SDS011;20935;42.660;23.342;2022-10-23T12:42:23;3.07;;;2.70;;
8048;SDS011;20935;42.660;23.342;2022-10-23T12:45:36;3.07;;;2.77;;
8048;SDS011;20935;42.660;23.342;2022-10-23T12:47:34;3.13;;;2.27;;
8048;SDS011;20935;42.660;23.342;2022-10-23T12:49:59;2.40;;;2.20;;
8048;SDS011;20935;42.660;23.342;2022-10-23T12:52:25;2.70;;;2.50;;
8048;SDS011;20935;42.660;23.342;2022-10-23T12:54:50;4.83;;;2.90;;
8048;SDS011;20935;42.660;23.342;2022-10-23T12:57:20;3.17;;;2.40;;
8048;SDS011;20935;42.660;23.342;2022-10-23T12:59:46;4.97;;;2.50;;
8048;SDS011;20935;42.660;23.342;2022-10-23T13:02:13;3.47;;;2.60;;
8048;SDS011;20935;42.660;23.342;2022-10-23T13:04:38;2.97;;;2.23;;
8048;SDS011;20935;42.660;23.342;2022-10-23T13:07:04;2.50;;;2.00;;
8048;SDS011;20935;42.660;23.342;2022-10-23T13:09:40;5.33;;;2.30;;
8048;SDS011;20935;42.660;23.342;2022-10-23T13:12:06;3.33;;;1.97;;
8048;SDS011;20935;42.660;23.342;2022-10-23T13:14:34;1.90;;;1.70;;
8048;SDS011;20935;42.660;23.342;2022-10-23T13:17:03;3.67;;;1.93;;
8048;SDS011;20935;42.660;23.342;2022-10-23T13:19:29;2.33;;;2.13;;
8048;SDS011;20935;42.660;23.342;2022-10-23T13:21:55;4.27;;;2.17;;
8048;SDS011;20935;42.660;23.342;2022-10-23T13:24:21;3.90;;;2.43;;
8048;SDS011;20935;42.660;23.342;2022-10-23T13:26:46;3.17;;;2.13;;
8048;SDS011;20935;42.660;23.342;2022-10-23T13:29:24;2.67;;;2.47;;
8048;SDS011;20935;42.660;23.342;2022-10-23T13:31:50;2.60;;;2.33;;
8048;SDS011;20935;42.660;23.342;2022-10-23T13:34:17;2.17;;;2.00;;
8048;SDS011;20935;42.660;23.342;2022-10-23T13:36:51;2.50;;;2.10;;
8048;SDS011;20935;42.660;23.342;2022-10-23T13:39:20;4.00;;;2.77;;
8048;SDS011;20935;42.660;23.342;2022-10-23T13:41:46;3.67;;;2.70;;
8048;SDS011;20935;42.660;23.342;2022-10-23T13:44:13;2.93;;;2.73;;
8048;SDS011;20935;42.660;23.342;2022-10-23T13:46:38;3.93;;;2.20;;
8048;SDS011;20935;42.660;23.342;2022-10-23T13:49:04;2.50;;;2.30;;
8048;SDS011;20935;42.660;23.342;2022-10-23T13:51:30;2.00;;;1.80;;
8048;SDS011;20935;42.660;23.342;2022-10-23T13:53:56;3.00;;;2.07;;
8048;SDS011;20935;42.660;23.342;2022-10-23T13:56:23;2.10;;;2.00;;
8048;SDS011;20935;42.660;23.342;2022-10-23T13:58:48;2.67;;;2.30;;
8048;SDS011;20935;42.660;23.342;2022-10-23T14:01:21;2.03;;;1.93;;
8048;SDS011;20935;42.660;23.342;2022-10-23T14:03:51;4.03;;;2.70;;
8048;SDS011;20935;42.660;23.342;2022-10-23T14:06:16;5.33;;;2.33;;
8048;SDS011;20935;42.660;23.342;2022-10-23T14:08:42;2.50;;;2.30;;
8048;SDS011;20935;42.660;23.342;2022-10-23T14:11:08;4.03;;;2.27;;
8048;SDS011;20935;42.660;23.342;2022-10-23T14:13:34;2.53;;;2.33;;
8048;SDS011;20935;42.660;23.342;2022-10-23T14:15:59;2.67;;;2.47;;
8048;SDS011;20935;42.660;23.342;2022-10-23T14:18:25;4.00;;;2.40;;
8048;SDS011;20935;42.660;23.342;2022-10-23T14:20:50;2.47;;;2.20;;
8048;SDS011;20935;42.660;23.342;2022-10-23T14:23:16;4.27;;;2.60;;
8048;SDS011;20935;42.660;23.342;2022-10-23T14:25:41;3.77;;;2.67;;
8048;SDS011;20935;42.660;23.342;2022-10-23T14:28:06;4.40;;;2.27;;
8048;SDS011;20935;42.660;23.342;2022-10-23T14:30:34;2.93;;;2.53;;
8048;SDS011;20935;42.660;23.342;2022-10-23T14:32:59;2.87;;;2.53;;
8048;SDS011;20935;42.660;23.342;2022-10-23T14:35:25;2.30;;;2.10;;
8048;SDS011;20935;42.660;23.342;2022-10-23T14:37:50;3.17;;;2.40;;
8048;SDS011;20935;42.660;23.342;2022-10-23T14:40:16;3.67;;;2.37;;
8048;SDS011;20935;42.660;23.342;2022-10-23T14:42:41;2.70;;;2.20;;
8048;SDS011;20935;42.660;23.342;2022-10-23T14:45:06;3.43;;;2.70;;
8048;SDS011;20935;42.660;23.342;2022-10-23T14:47:32;3.33;;;2.53;;
8048;SDS011;20935;42.660;23.342;2022-10-23T14:49:57;3.70;;;2.57;;
8048;SDS011;20935;42.660;23.342;2022-10-23T14:52:23;3.60;;;2.67;;
8048;SDS011;20935;42.660;23.342;2022-10-23T14:54:51;5.33;;;2.87;;
8048;SDS011;20935;42.660;23.342;2022-10-23T14:57:19;4.70;;;3.00;;
8048;SDS011;20935;42.660;23.342;2022-10-23T14:59:46;4.73;;;2.97;;
8048;SDS011;20935;42.660;23.342;2022-10-23T15:02:12;6.00;;;3.27;;
8048;SDS011;20935;42.660;23.342;2022-10-23T15:04:37;3.57;;;2.90;;
8048;SDS011;20935;42.660;23.342;2022-10-23T15:07:03;5.43;;;3.03;;
8048;SDS011;20935;42.660;23.342;2022-10-23T15:09:28;3.97;;;3.10;;
8048;SDS011;20935;42.660;23.342;2022-10-23T15:11:53;4.10;;;3.43;;
8048;SDS011;20935;42.660;23.342;2022-10-23T15:14:19;3.90;;;2.83;;
8048;SDS011;20935;42.660;23.342;2022-10-23T15:16:44;4.40;;;3.37;;
8048;SDS011;20935;42.660;23.342;2022-10-23T15:19:11;4.23;;;3.07;;
8048;SDS011;20935;42.660;23.342;2022-10-23T15:21:36;5.57;;;3.20;;
8048;SDS011;20935;42.660;23.342;2022-10-23T15:24:02;4.97;;;3.07;;
8048;SDS011;20935;42.660;23.342;2022-10-23T15:26:28;4.20;;;3.00;;
8048;SDS011;20935;42.660;23.342;2022-10-23T15:28:54;3.50;;;2.93;;
8048;SDS011;20935;42.660;23.342;2022-10-23T15:34:26;3.80;;;3.00;;
8048;SDS011;20935;42.660;23.342;2022-10-23T15:36:52;6.73;;;3.30;;
8048;SDS011;20935;42.660;23.342;2022-10-23T15:39:19;2.87;;;2.63;;
8048;SDS011;20935;42.660;23.342;2022-10-23T15:41:45;5.40;;;2.70;;
8048;SDS011;20935;42.660;23.342;2022-10-23T15:44:12;3.13;;;2.83;;
8048;SDS011;20935;42.660;23.342;2022-10-23T15:46:38;3.90;;;2.60;;
8048;SDS011;20935;42.660;23.342;2022-10-23T15:49:03;4.57;;;2.87;;
8048;SDS011;20935;42.660;23.342;2022-10-23T15:51:29;3.13;;;2.57;;
8048;SDS011;20935;42.660;23.342;2022-10-23T15:53:54;3.47;;;2.80;;
8048;SDS011;20935;42.660;23.342;2022-10-23T15:56:21;6.93;;;3.17;;
8048;SDS011;20935;42.660;23.342;2022-10-23T15:58:46;5.33;;;2.90;;
8048;SDS011;20935;42.660;23.342;2022-10-23T16:01:11;3.13;;;2.80;;
8048;SDS011;20935;42.660;23.342;2022-10-23T16:03:37;4.60;;;2.77;;
8048;SDS011;20935;42.660;23.342;2022-10-23T16:06:03;5.10;;;2.87;;
8048;SDS011;20935;42.660;23.342;2022-10-23T16:08:29;3.63;;;2.77;;
8048;SDS011;20935;42.660;23.342;2022-10-23T16:10:54;5.73;;;3.20;;
8048;SDS011;20935;42.660;23.342;2022-10-23T16:13:19;6.53;;;4.40;;
8048;SDS011;20935;42.660;23.342;2022-10-23T16:15:45;4.53;;;3.60;;
8048;SDS011;20935;42.660;23.342;2022-10-23T16:18:10;4.03;;;3.30;;
8048;SDS011;20935;42.660;23.342;2022-10-23T16:20:39;5.20;;;3.67;;
8048;SDS011;20935;42.660;23.342;2022-10-23T16:23:05;5.80;;;3.80;;
8048;SDS011;20935;42.660;23.342;2022-10-23T16:25:30;4.63;;;3.60;;
8048;SDS011;20935;42.660;23.342;2022-10-23T16:27:57;9.63;;;5.70;;
8048;SDS011;20935;42.660;23.342;2022-10-23T16:30:22;17.00;;;12.20;;
8048;SDS011;20935;42.660;23.342;2022-10-23T16:32:48;6.43;;;5.67;;
8048;SDS011;20935;42.660;23.342;2022-10-23T16:35:14;5.87;;;3.57;;
8048;SDS011;20935;42.660;23.342;2022-10-23T16:37:40;5.17;;;3.80;;